createdAt,value
2022-10-26T00:00:01.404Z,47.3
2022-10-26T00:05:02.586Z,49.5
2022-10-26T00:10:01.553Z,44.0
2022-10-26T00:15:07.999Z,43.6
2022-10-26T00:20:06.463Z,43.2
2022-10-26T00:25:01.707Z,42.3
2022-10-26T00:30:01.730Z,39.9
2022-10-26T00:40:08.014Z,40.6
2022-10-26T00:45:01.924Z,41.0
2022-10-26T00:50:06.737Z,41.9
2022-10-26T00:55:01.884Z,43.3
2022-10-26T01:00:01.949Z,43.2
2022-10-26T01:05:07.235Z,43.1
2022-10-26T01:10:01.825Z,43.7
2022-10-26T01:20:07.127Z,43.8
2022-10-26T01:40:02.327Z,51.4
2022-10-26T01:45:06.560Z,46.8
2022-10-26T01:50:02.775Z,45.5
2022-10-26T01:55:01.619Z,44.2
2022-10-26T02:00:04.006Z,44.2
2022-10-26T02:05:02.000Z,42.5
2022-10-26T02:20:08.395Z,62.4
2022-10-26T02:25:02.362Z,52.9
2022-10-26T02:30:02.250Z,50.4
2022-10-26T02:35:02.321Z,48.5
2022-10-26T02:40:02.159Z,47.0
2022-10-26T02:45:05.220Z,43.0
2022-10-26T02:50:03.387Z,42.9
2022-10-26T02:55:02.226Z,42.2
2022-10-26T03:00:06.009Z,41.9
2022-10-26T03:05:07.260Z,42.2
2022-10-26T03:10:07.323Z,42.2
2022-10-26T03:15:03.367Z,42.5
2022-10-26T03:20:07.043Z,43.0
2022-10-26T03:25:02.264Z,43.8
2022-10-26T03:30:01.895Z,45.1
2022-10-26T03:35:07.321Z,45.2
2022-10-26T03:40:03.435Z,44.5
2022-10-26T03:45:03.533Z,44.2
2022-10-26T03:50:07.095Z,44.4
2022-10-26T03:55:07.472Z,43.5
2022-10-26T04:00:03.000Z,45.0
2022-10-26T04:05:06.987Z,46.6
2022-10-26T04:10:04.493Z,48.0
2022-10-26T04:20:07.404Z,49.2
2022-10-26T04:25:01.937Z,48.5
2022-10-26T04:30:06.935Z,47.6
2022-10-26T04:35:02.363Z,47.1
2022-10-26T04:45:03.105Z,46.3
2022-10-26T04:50:02.451Z,46.1
2022-10-26T04:55:03.278Z,48.1
2022-10-26T05:00:03.170Z,50.8
2022-10-26T05:05:15.385Z,52.0
2022-10-26T05:10:02.036Z,53.3
2022-10-26T05:15:09.812Z,53.6
2022-10-26T05:20:03.069Z,53.2
2022-10-26T05:25:08.633Z,50.7
2022-10-26T05:30:02.397Z,49.6
2022-10-26T05:35:07.782Z,48.4
2022-10-26T05:40:03.277Z,48.5
2022-10-26T05:45:02.744Z,50.8
2022-10-26T05:50:02.009Z,51.6
2022-10-26T05:55:03.499Z,52.6
2022-10-26T06:00:02.329Z,53.4
2022-10-26T06:10:02.101Z,53.4
2022-10-26T06:15:02.516Z,52.5
2022-10-26T06:20:02.447Z,51.3
2022-10-26T06:40:01.698Z,47.6
2022-10-26T06:45:01.918Z,49.4
2022-10-26T06:50:01.627Z,48.9
2022-10-26T07:10:02.095Z,52.6
2022-10-26T07:15:02.181Z,52.7
2022-10-26T07:20:01.580Z,50.2
2022-10-26T07:25:03.964Z,48.8
2022-10-26T07:30:02.288Z,47.8
2022-10-26T07:35:11.710Z,45.5
2022-10-26T07:40:07.606Z,46.3
2022-10-26T07:45:01.649Z,46.2
2022-10-26T07:50:01.970Z,46.7
2022-10-26T07:55:02.050Z,46.9
2022-10-26T08:00:01.869Z,47.9
2022-10-26T08:05:02.893Z,46.1
2022-10-26T08:10:02.871Z,46.8
2022-10-26T08:15:01.999Z,47.3
2022-10-26T08:20:01.859Z,46.8
2022-10-26T08:25:01.749Z,57.6
2022-10-26T08:30:01.645Z,56.5
2022-10-26T08:35:01.908Z,55.6
2022-10-26T08:40:03.744Z,55.4
2022-10-26T08:45:01.719Z,56.0
2022-10-26T08:50:01.947Z,45.1
2022-10-26T08:55:01.880Z,46.8
2022-10-26T09:00:02.486Z,48.9
2022-10-26T09:10:06.740Z,50.4
2022-10-26T09:30:08.211Z,44.0
2022-10-26T09:35:01.975Z,43.3
2022-10-26T09:40:06.822Z,41.9
2022-10-26T09:45:02.143Z,41.9
2022-10-26T09:50:02.838Z,41.6
2022-10-26T10:10:01.609Z,42.6
2022-10-26T10:15:01.844Z,42.3
2022-10-26T10:20:01.390Z,45.0
2022-10-26T10:25:02.489Z,45.2
2022-10-26T10:30:05.215Z,45.3
2022-10-26T10:35:06.570Z,46.6
2022-10-26T10:50:02.880Z,69.8
2022-10-26T10:55:02.916Z,69.2
2022-10-26T11:10:06.523Z,70.4
2022-10-26T11:15:01.403Z,71.8
2022-10-26T11:20:02.233Z,73.7
2022-10-26T11:25:01.889Z,71.8
2022-10-26T11:30:01.777Z,66.4
2022-10-26T11:35:01.318Z,61.2
2022-10-26T11:40:01.675Z,55.1
2022-10-26T12:05:01.979Z,39.6
2022-10-26T12:50:01.829Z,42.4
2022-10-26T13:55:02.637Z,34.0
2022-10-26T14:00:04.872Z,34.2
2022-10-26T14:05:02.037Z,35.0
2022-10-26T14:10:01.769Z,34.5
2022-10-26T14:15:01.755Z,35.3
2022-10-26T14:20:06.744Z,36.3
2022-10-26T14:25:01.778Z,36.5
2022-10-26T14:35:01.689Z,33.6
2022-10-26T14:40:02.102Z,31.2
2022-10-26T14:45:02.721Z,29.6
2022-10-26T14:55:01.756Z,28.8
2022-10-26T15:00:01.468Z,29.8
2022-10-26T15:05:01.687Z,30.4
2022-10-26T15:10:01.928Z,31.9
2022-10-26T15:15:07.901Z,33.2
2022-10-26T15:20:01.561Z,33.4
2022-10-26T15:25:01.801Z,33.0
2022-10-26T15:30:01.652Z,33.3
2022-10-26T15:50:02.354Z,39.8
2022-10-26T15:55:02.155Z,39.9
2022-10-26T16:00:01.691Z,39.5
2022-10-26T16:05:01.701Z,41.0
2022-10-26T16:10:06.961Z,42.0
2022-10-26T16:15:06.865Z,43.3
2022-10-26T16:20:09.445Z,44.7
2022-10-26T16:25:03.334Z,53.3
2022-10-26T16:30:02.424Z,52.2
2022-10-26T16:35:07.056Z,51.1
2022-10-26T16:40:02.227Z,49.7
2022-10-26T16:45:03.649Z,48.4
2022-10-26T16:50:01.869Z,40.9
2022-10-26T16:55:01.663Z,42.2
2022-10-26T17:00:01.839Z,43.2
2022-10-26T17:05:07.883Z,45.2
2022-10-26T17:10:02.861Z,45.7
2022-10-26T17:15:02.106Z,45.3
2022-10-26T17:20:01.685Z,45.7
2022-10-26T17:25:01.977Z,46.0
2022-10-26T17:30:02.127Z,46.6
2022-10-26T17:35:02.849Z,47.4
2022-10-26T17:40:01.724Z,48.8
2022-10-26T17:45:01.843Z,48.1
2022-10-26T17:50:05.256Z,48.6
2022-10-26T17:55:04.436Z,48.8
2022-10-26T18:00:06.594Z,50.8
2022-10-26T18:05:08.021Z,52.0
2022-10-26T18:15:01.732Z,53.4
2022-10-26T18:20:01.910Z,53.6
2022-10-26T18:25:02.260Z,50.2
2022-10-26T18:30:03.309Z,47.3
2022-10-26T18:35:01.875Z,46.0
2022-10-26T18:40:01.786Z,45.1
2022-10-26T18:45:02.390Z,43.2
2022-10-26T18:50:02.369Z,44.4
2022-10-26T18:55:02.170Z,45.1
2022-10-26T19:00:01.826Z,45.1
2022-10-26T19:05:02.835Z,50.4
2022-10-26T19:10:02.306Z,51.3
2022-10-26T19:15:01.695Z,52.7
2022-10-26T19:20:01.715Z,51.8
2022-10-26T19:25:01.560Z,51.0
2022-10-26T19:30:02.111Z,43.7
2022-10-26T19:35:01.729Z,42.8
2022-10-26T19:40:01.896Z,41.1
2022-10-26T19:45:01.800Z,42.2
2022-10-26T19:50:01.855Z,48.3
2022-10-26T19:55:01.747Z,50.6
2022-10-26T20:00:05.048Z,51.4
2022-10-26T20:05:02.171Z,50.9
2022-10-26T20:10:01.790Z,50.7
2022-10-26T20:15:01.719Z,45.8
2022-10-26T20:20:01.617Z,44.7
2022-10-26T20:25:05.107Z,44.5
2022-10-26T20:30:01.830Z,45.3
2022-10-26T20:35:01.773Z,45.5
2022-10-26T20:40:02.072Z,46.2
2022-10-26T20:45:02.048Z,47.3
2022-10-26T20:50:01.593Z,45.5
2022-10-26T20:55:01.508Z,44.8
2022-10-26T21:00:01.536Z,45.6
2022-10-26T21:05:01.626Z,44.8
2022-10-26T21:10:01.801Z,43.4
2022-10-26T21:15:01.606Z,45.5
2022-10-26T21:20:01.808Z,46.2
2022-10-26T21:25:01.619Z,45.5
2022-10-26T21:30:02.534Z,46.0
2022-10-26T21:35:02.189Z,47.0
2022-10-26T21:40:06.570Z,45.5
2022-10-26T21:45:01.617Z,56.4
2022-10-26T21:50:01.828Z,55.4
2022-10-26T21:55:01.968Z,54.8
2022-10-26T22:05:01.695Z,54.2
2022-10-26T22:20:02.123Z,47.2
2022-10-26T22:25:09.303Z,47.7
2022-10-26T22:30:02.017Z,45.5
2022-10-26T23:00:02.056Z,47.8
2022-10-26T23:05:01.510Z,54.0
2022-10-26T23:10:01.682Z,55.1
2022-10-26T23:15:02.554Z,56.6
2022-10-26T23:20:01.469Z,56.8
2022-10-26T23:25:01.497Z,56.8
2022-10-26T23:30:01.311Z,54.9
2022-10-26T23:35:01.469Z,53.2
2022-10-26T23:40:01.565Z,54.1
2022-10-26T23:45:01.729Z,54.0
2022-10-26T23:50:01.640Z,55.2
2022-10-26T23:55:06.919Z,55.5
